Weather observations for the past three days for
Providenciales
Metric (Imperial)
Date Time (edt) Wind (kph) Vis. (km) Weather Sky Cond. Temperature (ºC) Relative Humidity Wind Chill (°C) Heat Index (°C) Pressure Precipitation (cm)
Air Dwpt 6 hour altimeter (cm) sea level (mb) 1 hr 3 hr 6 hr
Max. Min.
03 20:00 Calm 0.00 Partly Cloudy SCT012 27 23 79% 30 0 0.0
03 17:00 SE 7 0.00 Partly Cloudy SCT012TCU 29 22 66% 32 0 0.0
03 16:00 SE 7 0.00 Partly Cloudy SCT012TCU 30 23 66% 34 0 0.0
03 15:00 SE 13 0.00 Partly Cloudy SCT012 30 23 66% 34 0 0.0
03 14:00 SE 15 0.00 Partly Cloudy SCT012 30 23 66% 34 0 0.0
03 13:00 SE 13 0.00 Partly Cloudy SCT012 30 23 66% 34 0 0.0
03 12:00 SE 13 0.00 Partly Cloudy SCT012 30 23 66% 34 0 0.0
03 11:15 E 15 0.00 Partly Cloudy SCT012 SCT030 29 23 70% 33 0 0.0
03 10:00 E 11 0.00 Partly Cloudy SCT012 29 23 70% 33 0 0.0
03 09:00 SE 9 0.00 Partly Cloudy SCT012 29 24 74% 34 0 0.0
03 08:00 E 11 0.00 Partly Cloudy SCT012CB SCT030 27 23 79% 30 0 0.0
03 07:00 E 9 0.00 Partly Cloudy SCT012 27 23 79% 30 0 0.0
03 06:00 E 15 0.00 Partly Cloudy SCT013CB 26 23 84% 28 0 0.0
02 17:00 E 11 0.00 Partly Cloudy SCT012 29 23 70% 33 0 0.0
02 15:00 E 13 0.00 Partly Cloudy SCT012CB 30 23 66% 34 0 0.0
02 14:35 E 13 0.00 Partly Cloudy SCT012CB 29 23 70% 33 0 0.0
02 13:00 E 13 0.00 Partly Cloudy SCT012CB 29 23 70% 33 0 0.0
02 12:00 E 13 0.00 Partly Cloudy SCT012CB 29 23 70% 33 0 0.0
02 11:00 E 11 0.00 Partly Cloudy SCT012CB 29 23 70% 33 0 0.0
02 10:00 E 19 0.00 Partly Cloudy SCT012CB 28 22 70% 31 0 0.0
02 08:00 NE 11 0.00 Partly Cloudy SCT012 27 23 79% 30 0 0.0
01 20:00 NE 13 0.00 Partly Cloudy SCT013CB 27 23 79% 30 0 0.0
01 19:00 NE 13 0.00 Partly Cloudy SCT013CB 27 23 79% 30 0 0.0
01 18:00 E 9 0.00 Partly Cloudy SCT013CB 28 24 79% 32 0 0.0
01 17:00 E 11 0.00 Partly Cloudy SCT013CB 29 22 66% 32 0 0.0
01 16:00 SE 9 0.00 Partly Cloudy SCT013CB 29 22 66% 32 0 0.0
01 13:00 E 9 0.00 A Few Clouds FEW012 29 22 66% 32 0 0.0
01 12:00 E 9 0.00 Partly Cloudy SCT012 30 22 62% 33 0 0.0
01 09:00 NE 11 0.00 Partly Cloudy SCT015 26 21 74% 27 0 0.0
01 07:00 NE 7 0.00 A Few Clouds FEW012 24 22 89% 24 0 0.0
Date Time (edt) Wind (kph) Vis. (km) Weather Sky Cond. Air Dwpt Max. Min. Relative Humidity Wind Chill (°C) Heat Index (°C) altimeter (cm) sea level (mb) 1 hr 3 hr 6 hr
6 hour
Temperature (ºC) Pressure Precipitation (cm)